Terminal Aerodrome Forecast
Issued by NWS Dallas/Fort Worth, TX

Home | Current Version | Previous Version | Text Only | Print | Product List | Glossary On
Versions: 1 2 3 4 5 6 7 8 9 10 11 12 13 14 15 16 17 18 19 20 21 22 23 24 25 26 27 28 29 30 31 32 33 34 35 36 37 38
000
FTUS44 KFWD 271807 CCA
TAFDFW
TAF COR
KDFW 271807Z 2718/2824 08006KT P6SM VCSH OVC030
     FM271900 06011KT P6SM VCTS SCT025 BKN035 BKN060CB
      TEMPO 2720/2722 4SM -TSRA BR BKN020CB
     FM272300 04007KT 5SM BR VCSH SCT015 SCT030 BKN050
     FM280400 01014G24KT P6SM OVC012
      TEMPO 2809/2812 BKN009=

USA.gov is the U.S. government's official web portal to all federal, state and local government web resources and services.